createdAt,value
2019-02-22T07:12:12.488Z,5.40
2019-02-22T07:14:53.148Z,6.07
2019-02-22T07:17:33.676Z,6.17
2019-02-22T07:22:59.740Z,5.17
2019-02-22T07:25:40.899Z,6.57
2019-02-22T07:28:21.438Z,5.60
2019-02-22T07:31:02.411Z,7.63
2019-02-22T07:33:43.348Z,7.70
2019-02-22T07:36:24.259Z,7.70
2019-02-22T07:39:05.111Z,7.30
2019-02-22T07:44:30.685Z,8.20
2019-02-22T07:47:11.353Z,6.53
2019-02-22T07:49:52.530Z,6.97
2019-02-22T07:52:33.315Z,7.13
2019-02-22T07:57:53.291Z,5.90
2019-02-22T08:00:21.954Z,6.93
2019-02-22T08:02:51.437Z,5.90
2019-02-22T08:05:20.110Z,8.03
2019-02-22T08:07:48.831Z,7.30
2019-02-22T08:10:17.511Z,8.47
2019-02-22T08:12:46.173Z,5.63
2019-02-22T08:15:14.851Z,6.90
2019-02-22T08:17:43.579Z,6.30
2019-02-22T08:20:12.257Z,5.80
2019-02-22T08:22:40.918Z,5.20
2019-02-22T08:25:09.673Z,5.57
2019-02-22T08:27:40.321Z,5.50
2019-02-22T08:30:09.538Z,6.63
2019-02-22T08:32:38.195Z,4.80
2019-02-22T08:35:06.982Z,5.57
2019-02-22T08:37:35.694Z,6.20
2019-02-22T08:40:04.728Z,5.87
2019-02-22T08:42:33.422Z,4.70
2019-02-22T08:45:02.111Z,6.67
2019-02-22T08:47:30.879Z,4.70
2019-02-22T08:49:59.637Z,4.47
2019-02-22T08:52:28.294Z,4.43
2019-02-22T08:54:56.992Z,4.47
2019-02-22T08:57:25.726Z,4.50
2019-02-22T08:59:54.410Z,5.17
2019-02-22T09:02:23.091Z,4.57
2019-02-22T09:04:51.776Z,4.37
2019-02-22T09:07:20.492Z,4.67
2019-02-22T09:09:49.206Z,4.00
2019-02-22T09:12:17.963Z,3.80
2019-02-22T09:14:46.723Z,4.20
2019-02-22T09:17:15.399Z,5.60
2019-02-22T09:19:44.088Z,4.60
2019-02-22T09:22:22.440Z,5.50
2019-02-22T09:24:43.195Z,4.13
2019-02-22T09:27:11.926Z,4.80
2019-02-22T09:29:40.598Z,4.90
2019-02-22T09:32:09.337Z,7.80
2019-02-22T09:34:38.019Z,4.10
2019-02-22T09:37:06.759Z,5.53
2019-02-22T09:39:35.527Z,3.57
2019-02-22T09:42:04.192Z,4.23
2019-02-22T09:44:32.867Z,3.57
2019-02-22T09:47:01.536Z,4.30
2019-02-22T09:49:30.322Z,6.17
2019-02-22T09:51:59.002Z,6.00
2019-02-22T09:54:27.731Z,4.07
2019-02-22T09:56:56.442Z,6.23
2019-02-22T09:59:25.122Z,4.67
2019-02-22T10:01:53.810Z,4.13
2019-02-22T10:04:22.626Z,6.13
2019-02-22T10:06:51.313Z,5.10
2019-02-22T10:09:19.991Z,6.50
2019-02-22T10:11:48.666Z,5.70
2019-02-22T10:14:17.339Z,4.87
2019-02-22T10:16:46.114Z,5.83
2019-02-22T10:19:14.786Z,6.63
2019-02-22T10:21:43.468Z,5.03
2019-02-22T10:24:12.131Z,4.03
2019-02-22T10:26:40.825Z,6.10
2019-02-22T10:29:09.491Z,6.93
2019-02-22T10:31:38.171Z,5.20
2019-02-22T10:34:06.838Z,5.87
2019-02-22T10:36:44.679Z,5.73
2019-02-22T10:39:06.446Z,8.13
2019-02-22T10:41:35.150Z,6.87
2019-02-22T10:44:03.895Z,4.80
2019-02-22T10:46:32.575Z,7.30
2019-02-22T10:49:01.250Z,5.90
2019-02-22T10:51:29.922Z,4.90
2019-02-22T10:53:58.603Z,6.63
2019-02-22T10:56:28.321Z,6.37
2019-02-22T10:58:57.370Z,5.37
2019-02-22T11:01:26.066Z,4.37
2019-02-22T11:03:54.730Z,5.27
2019-02-22T11:06:23.411Z,6.03
2019-02-22T11:08:52.083Z,4.07
2019-02-22T11:11:20.760Z,3.77
2019-02-22T11:13:49.435Z,4.77
2019-02-22T11:16:18.143Z,5.37
2019-02-22T11:18:47.123Z,7.37
2019-02-22T11:21:15.853Z,9.43
2019-02-22T11:23:44.541Z,4.93
2019-02-22T11:26:13.215Z,5.13
2019-02-22T11:28:41.903Z,6.37
2019-02-22T11:31:10.578Z,5.90
2019-02-22T11:33:39.263Z,5.00
2019-02-22T11:36:07.940Z,4.17
2019-02-22T11:38:36.718Z,6.73
2019-02-22T11:41:05.381Z,4.90
2019-02-22T11:43:34.066Z,4.90
2019-02-22T11:46:02.736Z,5.60
2019-02-22T11:48:31.424Z,5.97
2019-02-22T11:51:00.108Z,6.80
2019-02-22T11:53:28.795Z,8.80
2019-02-22T11:55:57.459Z,5.30
2019-02-22T11:58:26.141Z,6.33
2019-02-22T12:00:54.807Z,4.57
2019-02-22T12:03:24.991Z,7.07
2019-02-22T12:05:54.187Z,4.83
2019-02-22T12:08:22.863Z,7.73
2019-02-22T12:10:51.603Z,3.53
2019-02-22T12:13:20.302Z,5.93
2019-02-22T12:15:48.959Z,3.20
2019-02-22T12:18:17.635Z,6.07
2019-02-22T12:20:46.302Z,4.70
2019-02-22T12:23:14.976Z,6.80
2019-02-22T12:25:44.601Z,4.90
2019-02-22T12:28:13.386Z,4.77
2019-02-22T12:30:42.050Z,6.50
2019-02-22T12:33:10.739Z,10.33
2019-02-22T12:35:39.541Z,4.20
2019-02-22T12:38:08.218Z,4.87
2019-02-22T12:40:36.888Z,5.13
2019-02-22T12:43:05.570Z,7.03
2019-02-22T12:45:34.230Z,4.63
2019-02-22T12:48:02.912Z,5.23
2019-02-22T12:50:31.581Z,4.87
2019-02-22T12:53:00.254Z,4.63
2019-02-22T12:55:28.931Z,5.70
2019-02-22T12:57:57.607Z,4.50
2019-02-22T13:00:26.286Z,4.60
2019-02-22T13:03:02.138Z,5.83
2019-02-22T13:05:25.738Z,6.37
2019-02-22T13:07:54.406Z,5.43
2019-02-22T13:10:23.148Z,7.17
2019-02-22T13:12:51.846Z,4.73
2019-02-22T13:15:20.506Z,5.50
2019-02-22T13:17:49.171Z,4.10
2019-02-22T13:20:17.845Z,10.67
2019-02-22T13:22:46.522Z,3.27
2019-02-22T13:25:15.194Z,5.70
2019-02-22T13:27:43.859Z,4.90
2019-02-22T13:30:13.046Z,6.10
2019-02-22T13:32:41.714Z,4.50
2019-02-22T13:35:11.117Z,12.30
2019-02-22T13:37:40.066Z,6.20
2019-02-22T13:40:10.458Z,4.97
2019-02-22T13:42:39.122Z,13.70
2019-02-22T13:45:08.822Z,5.73
2019-02-22T13:47:37.663Z,5.83
2019-02-22T13:50:09.982Z,3.73
2019-02-22T13:52:38.638Z,4.23
2019-02-22T13:55:07.914Z,5.87
2019-02-22T13:57:36.574Z,5.30
2019-02-22T14:00:06.083Z,4.17
2019-02-22T14:02:34.747Z,4.93
2019-02-22T14:05:03.427Z,5.37
2019-02-22T14:07:32.086Z,4.20
2019-02-22T14:10:00.766Z,8.83
2019-02-22T14:12:29.435Z,13.27
2019-02-22T14:14:58.103Z,3.53
2019-02-22T14:17:26.802Z,5.30
2019-02-22T14:19:55.474Z,4.87
2019-02-22T14:22:24.142Z,9.70
2019-02-22T14:24:52.819Z,6.03
2019-02-22T14:27:21.482Z,5.90
2019-02-22T14:29:50.163Z,3.10
2019-02-22T14:32:18.834Z,3.93
2019-02-22T14:34:47.554Z,4.73
2019-02-22T14:37:16.355Z,8.17
2019-02-22T14:39:45.171Z,3.20
2019-02-22T14:42:13.854Z,5.20
2019-02-22T14:44:42.602Z,5.23
2019-02-22T14:47:11.298Z,5.20
2019-02-22T14:49:39.988Z,4.33
2019-02-22T14:52:08.650Z,5.57
2019-02-22T14:54:37.446Z,5.17
2019-02-22T14:57:06.144Z,6.30
2019-02-22T14:59:34.830Z,5.27
2019-02-22T15:02:03.504Z,5.27
2019-02-22T15:04:32.179Z,5.83
2019-02-22T15:07:00.851Z,4.40
2019-02-22T15:09:29.518Z,4.60
2019-02-22T15:11:58.186Z,3.93
2019-02-22T15:14:26.863Z,8.50
2019-02-22T15:17:13.777Z,5.70
2019-02-22T15:19:42.507Z,3.63
2019-02-22T15:22:11.183Z,4.47
2019-02-22T15:24:39.867Z,4.53
2019-02-22T15:27:08.540Z,8.53
2019-02-22T15:29:37.220Z,4.87
2019-02-22T15:32:05.894Z,6.17
2019-02-22T15:34:34.578Z,4.73
2019-02-22T15:37:03.253Z,6.13
2019-02-22T15:39:31.961Z,5.23
2019-02-22T15:42:00.682Z,5.83
2019-02-22T15:44:29.351Z,7.40
2019-02-22T15:46:58.070Z,5.70
2019-02-22T15:49:26.768Z,7.17
2019-02-22T15:51:55.434Z,5.73
2019-02-22T15:54:24.118Z,6.60
2019-02-22T15:56:52.792Z,8.63
2019-02-22T15:59:21.498Z,11.63
2019-02-22T16:01:55.178Z,7.53
2019-02-22T16:04:32.244Z,8.17
2019-02-22T16:07:01.003Z,8.13
2019-02-22T16:09:29.661Z,7.80
2019-02-22T16:11:58.334Z,7.90
2019-02-22T16:14:26.999Z,8.73
2019-02-22T16:16:55.686Z,11.97
2019-02-22T16:19:24.350Z,8.37
2019-02-22T16:21:53.050Z,8.37
2019-02-22T16:24:21.728Z,9.33
2019-02-22T16:27:01.745Z,9.60
2019-02-22T16:29:31.577Z,7.50
2019-02-22T16:32:00.398Z,8.60
2019-02-22T16:34:29.074Z,9.17
2019-02-22T16:36:57.758Z,6.40
2019-02-22T16:39:26.436Z,9.87
2019-02-22T16:41:55.191Z,9.77
2019-02-22T16:44:23.862Z,7.20
2019-02-22T16:46:52.552Z,13.10
2019-02-22T16:49:21.230Z,9.80
2019-02-22T16:51:49.905Z,7.90
2019-02-22T16:54:18.662Z,14.07
2019-02-22T16:56:47.346Z,9.63
2019-02-22T16:59:16.015Z,9.17
2019-02-22T17:01:44.694Z,8.40
2019-02-22T17:04:13.374Z,7.20
2019-02-22T17:06:42.054Z,10.13
2019-02-22T17:09:10.805Z,13.53
2019-02-22T17:11:39.498Z,11.53
2019-02-22T17:14:08.175Z,13.23
2019-02-22T17:16:45.492Z,7.30
2019-02-22T17:19:07.266Z,9.83
2019-02-22T17:21:35.958Z,7.93
2019-02-22T17:24:04.624Z,9.30
2019-02-22T17:26:33.316Z,10.60
2019-02-22T17:29:02.026Z,13.33
2019-02-22T17:31:30.718Z,11.70
2019-02-22T17:33:59.394Z,13.90
2019-02-22T17:36:28.074Z,9.23
2019-02-22T17:38:56.754Z,9.80
2019-02-22T17:41:25.455Z,9.67
2019-02-22T17:43:54.126Z,10.40
2019-02-22T17:46:22.806Z,12.83
2019-02-22T17:48:51.493Z,17.07
2019-02-22T17:51:20.175Z,8.70
2019-02-22T17:53:48.875Z,9.43
2019-02-22T17:56:17.547Z,13.50
2019-02-22T17:58:46.231Z,14.13
2019-02-22T18:01:14.926Z,21.80
2019-02-22T18:03:43.631Z,34.63
2019-02-22T18:06:12.405Z,24.60
2019-02-22T18:08:41.104Z,20.17
2019-02-22T18:11:09.869Z,19.07
2019-02-22T18:13:38.564Z,14.17
2019-02-22T18:16:07.252Z,13.53
2019-02-22T18:18:35.956Z,10.40
2019-02-22T18:21:04.711Z,9.57
2019-02-22T18:23:33.420Z,9.43
2019-02-22T18:26:02.166Z,7.00
2019-02-22T18:28:30.870Z,7.70
2019-02-22T18:30:59.566Z,15.83
2019-02-22T18:33:28.258Z,12.60
2019-02-22T18:35:56.943Z,10.63
2019-02-22T18:38:25.715Z,11.80
2019-02-22T18:40:54.410Z,15.85
2019-02-22T18:43:23.093Z,18.77
2019-02-22T18:45:51.763Z,13.57
2019-02-22T18:48:20.442Z,15.20
2019-02-22T18:50:49.123Z,12.40
2019-02-22T18:53:17.814Z,8.05
2019-02-22T18:55:49.795Z,8.53
2019-02-22T18:58:16.910Z,9.73
2019-02-22T19:00:45.573Z,8.40
2019-02-22T19:03:14.302Z,7.50
2019-02-22T19:05:42.977Z,9.15
2019-02-22T19:08:11.654Z,10.95
2019-02-22T19:10:40.338Z,7.92
2019-02-22T19:13:09.006Z,12.30
2019-02-22T19:15:37.691Z,8.73
2019-02-22T19:18:06.364Z,10.60
2019-02-22T19:20:35.046Z,8.80
2019-02-22T19:23:03.781Z,9.73
2019-02-22T19:25:32.465Z,8.70
2019-02-22T19:28:01.140Z,10.93
2019-02-22T19:30:29.826Z,10.58
2019-02-22T19:32:58.497Z,11.78
2019-02-22T19:35:27.185Z,10.95
2019-02-22T19:37:55.862Z,14.47
2019-02-22T19:40:24.558Z,11.55
2019-02-22T19:42:53.243Z,12.78
2019-02-22T19:45:21.930Z,12.20
2019-02-22T19:47:50.599Z,8.43
2019-02-22T19:50:19.358Z,9.15
2019-02-22T19:52:48.031Z,6.80
2019-02-22T19:55:16.851Z,7.20
2019-02-22T19:57:45.525Z,9.83
2019-02-22T20:00:15.492Z,8.90
2019-02-22T20:02:44.327Z,9.08
2019-02-22T20:05:13.082Z,9.63
2019-02-22T20:07:41.778Z,13.38
2019-02-22T20:10:17.767Z,11.10
2019-02-22T20:12:42.327Z,11.35
2019-02-22T20:15:12.626Z,9.48
2019-02-22T20:17:52.604Z,17.90
2019-02-22T20:20:13.109Z,12.37
2019-02-22T20:22:41.803Z,11.83
2019-02-22T20:25:10.602Z,10.95
2019-02-22T20:27:39.300Z,11.97
2019-02-22T20:30:10.403Z,14.78
2019-02-22T20:32:39.082Z,14.13
2019-02-22T20:35:09.926Z,12.30
2019-02-22T20:37:39.027Z,13.70
2019-02-22T20:40:08.342Z,13.38
2019-02-22T20:42:37.027Z,11.30
2019-02-22T20:45:05.975Z,10.88
2019-02-22T20:47:34.665Z,12.93
2019-02-22T20:50:03.342Z,16.75
2019-02-22T20:52:32.031Z,18.77
2019-02-22T20:55:00.742Z,14.07
2019-02-22T20:57:29.429Z,13.75
2019-02-22T20:59:58.130Z,14.33
2019-02-22T21:02:26.793Z,12.58
2019-02-22T21:04:55.473Z,10.23
2019-02-22T21:07:24.133Z,10.50
2019-02-22T21:09:52.802Z,15.00
2019-02-22T21:12:21.461Z,13.43
2019-02-22T21:14:50.137Z,12.05
2019-02-22T21:17:18.809Z,13.88
2019-02-22T21:19:47.491Z,16.05
2019-02-22T21:22:16.162Z,13.32
